Time;durP1;ratioP1;P1;durP2;ratioP2;P2;SDS_P1;SDS_P2;PMS_P1;PMS_P2;Temp;Humidity;BMP_temperature;BMP_pressure;BME280_temperature;BME280_humidity;BME280_pressure;Samples;Min_cycle;Max_cycle;Signal;HPM_P1;HPM_P2
2022/07/16 00:01:23;;;;;;;6.40;1.65;;;;;;;24.28;58.92;100507.91;5064830;28;20089;-76
2022/07/16 00:03:51;;;;;;;5.68;1.60;;;;;;;24.28;58.96;100506.00;5032789;28;20033;-76
2022/07/16 00:06:17;;;;;;;5.38;1.90;;;;;;;24.17;59.16;100500.34;5041417;28;20035;-76
2022/07/16 00:08:42;;;;;;;7.20;2.13;;;;;;;24.24;59.22;100496.53;5054127;28;20127;-76
2022/07/16 00:11:08;;;;;;;11.15;2.20;;;;;;;24.24;59.23;100512.19;5053943;28;20031;-76
2022/07/16 00:13:34;;;;;;;5.10;1.77;;;;;;;24.16;59.11;100496.75;5053876;28;20029;-76
2022/07/16 00:15:59;;;;;;;5.40;1.50;;;;;;;24.18;59.40;100504.81;5053877;28;20040;-76
2022/07/16 00:21:08;;;;;;;14.32;2.22;;;;;;;24.12;59.28;100483.69;5053320;28;20139;-76
2022/07/16 00:23:34;;;;;;;4.55;1.73;;;;;;;24.15;59.20;100481.34;5053506;28;20107;-75
2022/07/16 00:25:59;;;;;;;2.00;1.70;;;;;;;24.18;59.36;100499.31;5053662;28;20025;-76
2022/07/16 00:28:25;;;;;;;6.05;2.05;;;;;;;24.13;59.50;100494.44;5053323;28;20401;-76
2022/07/16 00:30:50;;;;;;;14.50;2.22;;;;;;;24.11;59.31;100490.22;5053494;28;20029;-76
2022/07/16 00:33:16;;;;;;;7.10;4.10;;;;;;;24.07;59.29;100497.16;5053408;28;20032;-77
2022/07/16 00:35:41;;;;;;;8.00;1.55;;;;;;;23.96;59.40;100497.84;5059643;28;20033;-76
2022/07/16 00:38:07;;;;;;;6.00;1.90;;;;;;;23.87;59.38;100471.66;5058903;28;20025;-76
2022/07/16 00:40:33;;;;;;;11.75;2.40;;;;;;;23.96;59.54;100495.09;5051185;28;20678;-75
2022/07/16 00:42:59;;;;;;;9.15;1.88;;;;;;;23.96;59.22;100490.44;5052851;28;20025;-76
2022/07/16 00:45:25;;;;;;;10.15;1.70;;;;;;;23.89;59.09;100478.63;5051039;28;20067;-77
2022/07/16 00:47:51;;;;;;;6.70;1.48;;;;;;;23.92;59.12;100474.59;5052887;28;20028;-76
2022/07/16 00:50:16;;;;;;;4.65;1.95;;;;;;;23.92;59.30;100471.84;5052726;28;20025;-76
2022/07/16 00:52:42;;;;;;;10.48;2.10;;;;;;;23.95;59.41;100474.16;5052954;28;20436;-76
2022/07/16 00:55:08;;;;;;;8.38;2.47;;;;;;;23.89;59.46;100472.28;5052600;28;20056;-76
2022/07/16 00:57:33;;;;;;;3.53;1.80;;;;;;;23.83;59.46;100472.09;5052649;28;20045;-78
2022/07/16 00:59:59;;;;;;;14.98;1.90;;;;;;;23.85;59.40;100480.13;5052984;28;20044;-76
2022/07/16 01:02:24;;;;;;;12.18;1.75;;;;;;;23.85;59.38;100491.13;5057059;28;20099;-77
2022/07/16 01:04:50;;;;;;;8.38;1.77;;;;;;;23.88;59.46;100487.09;5052776;28;20386;-76
2022/07/16 01:07:16;;;;;;;1.85;1.40;;;;;;;23.79;59.29;100476.31;5052897;28;20467;-76
2022/07/16 01:09:42;;;;;;;8.07;2.38;;;;;;;23.75;58.98;100469.59;5052916;28;20037;-76
2022/07/16 01:12:08;;;;;;;3.88;1.77;;;;;;;23.85;58.81;100480.94;5052868;28;20028;-75
2022/07/16 01:14:34;;;;;;;3.33;1.60;;;;;;;23.87;59.15;100479.91;5056525;28;20031;-75
2022/07/16 01:16:59;;;;;;;6.07;1.80;;;;;;;23.84;58.88;100490.28;5052530;28;20036;-75
2022/07/16 01:19:25;;;;;;;7.63;1.73;;;;;;;23.83;58.79;100483.06;5052444;28;20033;-75
2022/07/16 01:21:50;;;;;;;9.52;2.65;;;;;;;23.83;58.51;100477.59;5052226;28;20029;-76
2022/07/16 01:24:16;;;;;;;7.75;2.80;;;;;;;23.83;58.65;100482.22;5052207;28;20025;-75
2022/07/16 01:26:42;;;;;;;14.57;2.22;;;;;;;23.84;58.74;100472.94;5050854;28;20048;-77
2022/07/16 01:29:07;;;;;;;3.92;1.70;;;;;;;23.82;58.38;100478.63;5052753;28;20425;-76
2022/07/16 01:31:33;;;;;;;4.78;1.65;;;;;;;23.82;58.33;100475.88;5052809;28;20453;-77
2022/07/16 01:36:56;;;;;;;4.90;2.20;;;;;;;23.76;58.37;100476.75;5052250;28;20421;-75
2022/07/16 01:39:22;;;;;;;7.20;2.20;;;;;;;23.72;58.14;100478.25;5052360;28;20028;-76
2022/07/16 01:41:57;;;;;;;5.85;1.95;;;;;;;23.69;58.79;100481.41;5051615;28;20045;-75
2022/07/16 01:44:25;;;;;;;10.43;2.33;;;;;;;23.71;58.73;100484.78;5055347;28;20025;-76
2022/07/16 01:46:54;;;;;;;6.28;1.77;;;;;;;23.70;58.63;100484.97;5053484;28;20036;-75
2022/07/16 01:49:21;;;;;;;5.43;2.70;;;;;;;23.70;58.91;100483.09;5070022;28;20118;-75
2022/07/16 01:51:46;;;;;;;6.85;2.15;;;;;;;23.72;58.87;100486.50;5069651;28;20044;-76
2022/07/16 01:54:12;;;;;;;11.02;3.33;;;;;;;23.62;58.68;100463.25;5068524;28;20482;-76
2022/07/16 01:56:38;;;;;;;4.18;2.13;;;;;;;23.70;58.60;100480.34;5051855;28;20025;-76
2022/07/16 01:59:03;;;;;;;6.47;2.58;;;;;;;23.72;58.48;100489.22;5064554;28;20033;-75
2022/07/16 02:01:29;;;;;;;6.15;2.22;;;;;;;23.72;58.85;100485.63;5054478;28;20025;-76
2022/07/16 02:03:54;;;;;;;10.13;2.50;;;;;;;23.64;58.83;100483.09;5060463;28;20025;-76
2022/07/16 02:06:20;;;;;;;10.88;2.72;;;;;;;23.59;58.81;100486.50;5051630;28;20029;-75
2022/07/16 02:08:46;;;;;;;9.55;2.65;;;;;;;23.65;58.82;100495.78;5067440;28;20032;-76
2022/07/16 02:11:11;;;;;;;6.88;2.58;;;;;;;23.64;58.81;100494.94;5055615;28;20036;-75
2022/07/16 02:13:37;;;;;;;10.35;2.80;;;;;;;23.63;59.11;100503.41;5054414;28;20021;-75
2022/07/16 02:16:02;;;;;;;8.55;2.17;;;;;;;23.62;58.96;100502.53;5052775;28;20016;-76
2022/07/16 02:18:28;;;;;;;3.17;1.88;;;;;;;23.60;58.96;100510.16;5051438;28;20021;-76
2022/07/16 02:20:54;;;;;;;3.13;1.80;;;;;;;23.58;58.84;100522.38;5051232;28;20102;-75
2022/07/16 02:23:19;;;;;;;3.40;1.55;;;;;;;23.47;58.88;100501.91;5051264;28;20029;-75
2022/07/16 02:25:45;;;;;;;2.08;1.65;;;;;;;23.46;58.81;100497.47;5051278;28;20386;-75
2022/07/16 02:28:10;;;;;;;5.80;2.00;;;;;;;23.44;59.35;100496.84;5051134;28;20417;-75
2022/07/16 02:30:43;;;;;;;5.18;2.20;;;;;;;23.33;59.30;100492.78;5051372;28;20025;-75
2022/07/16 02:33:11;;;;;;;6.43;2.80;;;;;;;23.40;59.75;100509.31;5051242;28;20095;-75
2022/07/16 02:35:37;;;;;;;9.15;2.20;;;;;;;23.33;59.65;100507.59;5051481;28;20021;-76
2022/07/16 02:38:05;;;;;;;10.25;2.47;;;;;;;23.29;59.69;100504.41;5051408;28;20095;-76
2022/07/16 02:40:33;;;;;;;5.90;2.40;;;;;;;23.33;59.81;100509.25;5051163;28;20108;-75
2022/07/16 02:42:59;;;;;;;7.22;2.08;;;;;;;23.34;59.72;100507.38;5051462;28;20037;-76
2022/07/16 02:45:25;;;;;;;6.18;2.33;;;;;;;23.34;59.52;100499.13;5051075;28;20025;-75
2022/07/16 02:47:50;;;;;;;6.10;1.80;;;;;;;23.37;59.25;100498.72;5051033;28;20029;-75
2022/07/16 02:50:16;;;;;;;9.05;2.53;;;;;;;23.33;58.97;100507.59;5051107;28;20082;-76
2022/07/16 02:52:41;;;;;;;6.68;2.13;;;;;;;23.34;58.91;100507.38;5051019;28;20039;-76
2022/07/16 02:55:07;;;;;;;7.50;2.47;;;;;;;23.36;58.61;100491.56;5052298;28;20035;-75
2022/07/16 02:57:33;;;;;;;8.32;2.78;;;;;;;23.39;58.86;100504.88;5049921;28;20035;-76
2022/07/16 02:59:58;;;;;;;10.65;2.10;;;;;;;23.40;58.83;100503.81;5050813;28;20116;-76
2022/07/16 03:02:24;;;;;;;6.68;2.00;;;;;;;23.40;58.43;100509.31;5050839;28;20083;-76
2022/07/16 03:04:49;;;;;;;5.07;1.85;;;;;;;23.42;58.33;100509.97;5054415;28;20021;-76
2022/07/16 03:07:15;;;;;;;10.52;2.45;;;;;;;23.38;58.03;100500.41;5055106;28;20061;-76
2022/07/16 03:09:40;;;;;;;6.28;2.65;;;;;;;23.46;58.26;100511.19;5055173;28;20025;-76
2022/07/16 03:12:06;;;;;;;6.88;2.42;;;;;;;23.44;58.40;100510.56;5054654;28;20402;-76
2022/07/16 03:14:32;;;;;;;6.25;1.98;;;;;;;23.44;58.25;100509.72;5066505;28;20139;-76
2022/07/16 03:16:57;;;;;;;5.90;2.95;;;;;;;23.43;58.59;100502.53;5057873;28;20457;-77
2022/07/16 03:19:23;;;;;;;4.88;2.28;;;;;;;23.40;59.09;100509.31;5068985;28;20032;-75
2022/07/16 03:21:48;;;;;;;12.27;3.78;;;;;;;23.35;58.91;100498.09;5057446;28;20025;-75
2022/07/16 03:24:13;;;;;;;19.65;4.10;;;;;;;23.38;58.78;100511.38;5054851;28;20087;-76
2022/07/16 03:26:39;;;;;;;15.93;3.15;;;;;;;23.41;58.52;100516.50;5065089;28;20123;-76
2022/07/16 03:29:04;;;;;;;8.85;2.53;;;;;;;23.41;58.76;100508.25;5056667;28;20400;-76
2022/07/16 03:31:30;;;;;;;5.72;2.78;;;;;;;23.44;58.48;100509.72;5054908;28;20495;-77
2022/07/16 03:33:55;;;;;;;7.10;2.53;;;;;;;23.46;58.41;100513.09;5055024;28;20044;-75
2022/07/16 03:36:22;;;;;;;9.90;2.50;;;;;;;23.46;58.46;100507.59;5054499;28;20021;-75
2022/07/16 03:39:06;;;;;;;20.20;2.70;;;;;;;23.49;58.31;100519.00;5054622;28;20025;-76
2022/07/16 03:41:33;;;;;;;14.88;3.17;;;;;;;23.48;58.04;100516.50;5054611;28;20045;-75
2022/07/16 03:43:59;;;;;;;11.38;3.25;;;;;;;23.45;58.37;100516.91;5054646;28;20483;-75
2022/07/16 03:46:25;;;;;;;22.63;6.13;;;;;;;23.46;58.58;100515.84;5054715;28;20475;-75
2022/07/16 03:48:50;;;;;;;21.98;8.25;;;;;;;23.47;58.25;100525.78;5054812;28;20043;-75
2022/07/16 03:51:16;;;;;;;26.45;9.25;;;;;;;23.48;58.15;100528.31;5070191;28;20017;-78
2022/07/16 03:53:42;;;;;;;17.48;8.30;;;;;;;23.48;57.38;100535.72;5054680;28;20025;-75
2022/07/16 03:56:08;;;;;;;17.40;6.88;;;;;;;23.49;57.08;100535.47;5054575;28;20367;-76
2022/07/16 03:58:33;;;;;;;18.63;5.57;;;;;;;23.52;57.07;100536.97;5053818;28;20414;-76
2022/07/16 04:00:59;;;;;;;12.93;5.60;;;;;;;23.56;57.30;100530.84;5053544;28;20024;-76
2022/07/16 04:03:24;;;;;;;16.42;5.68;;;;;;;23.62;57.62;100534.66;5053421;28;20022;-77
2022/07/16 04:05:50;;;;;;;11.90;5.10;;;;;;;23.61;57.55;100517.31;5053434;28;20043;-75
2022/07/16 04:08:16;;;;;;;13.05;4.53;;;;;;;23.69;57.59;100528.09;5051946;28;20025;-76
2022/07/16 04:10:42;;;;;;;22.65;4.57;;;;;;;23.71;57.57;100517.75;5053399;28;20083;-76
2022/07/16 04:13:08;;;;;;;12.25;3.42;;;;;;;23.76;57.72;100526.19;5053283;28;20025;-74
2022/07/16 04:15:33;;;;;;;13.75;4.32;;;;;;;23.79;57.86;100525.75;5052588;28;20028;-76
2022/07/16 04:17:58;;;;;;;11.18;4.18;;;;;;;23.73;57.75;100510.13;5053328;28;20049;-76
2022/07/16 04:20:24;;;;;;;18.48;4.88;;;;;;;23.87;57.89;100518.34;5053339;28;20445;-76
2022/07/16 04:22:49;;;;;;;10.73;5.35;;;;;;;23.92;57.72;100529.53;5053231;28;20025;-76
2022/07/16 04:25:15;;;;;;;9.07;4.35;;;;;;;23.99;57.83;100535.88;5053324;28;20025;-76
2022/07/16 04:27:44;;;;;;;15.82;4.60;;;;;;;24.01;57.95;100536.50;5057175;28;20197;-75
2022/07/16 04:30:10;;;;;;;13.88;5.50;;;;;;;24.05;58.28;100535.88;5062054;28;20037;-75
2022/07/16 04:32:37;;;;;;;18.20;5.00;;;;;;;24.06;58.03;100531.22;5053960;28;20143;-76
2022/07/16 04:35:04;;;;;;;18.35;4.65;;;;;;;24.13;57.90;100529.31;5068324;28;20025;-75
2022/07/16 04:37:29;;;;;;;11.82;4.13;;;;;;;24.18;57.70;100535.88;5072878;28;20029;-76
2022/07/16 04:39:55;;;;;;;17.25;6.53;;;;;;;24.29;57.53;100542.59;5058752;28;20372;-76
2022/07/16 04:42:21;;;;;;;23.38;4.85;;;;;;;24.35;57.47;100542.59;5052667;28;20439;-76
2022/07/16 04:44:46;;;;;;;17.20;4.78;;;;;;;24.44;57.43;100532.19;5052883;28;20471;-76
2022/07/16 04:47:11;;;;;;;14.48;4.80;;;;;;;24.51;57.14;100530.25;5051642;28;20031;-76
2022/07/16 04:49:37;;;;;;;13.50;4.15;;;;;;;24.59;56.87;100530.00;5052753;28;20108;-76
2022/07/16 04:52:04;;;;;;;17.38;3.95;;;;;;;24.69;56.57;100535.03;5051268;28;20502;-78
2022/07/16 04:54:29;;;;;;;10.98;3.83;;;;;;;24.77;56.29;100534.78;5052560;28;20112;-76
2022/07/16 04:56:54;;;;;;;19.67;5.47;;;;;;;24.83;56.12;100545.78;5052364;28;20111;-75
2022/07/16 04:59:20;;;;;;;15.57;3.47;;;;;;;24.86;55.89;100539.03;5052487;28;20384;-76
2022/07/16 05:01:45;;;;;;;11.48;4.15;;;;;;;24.91;54.32;100541.97;5052581;28;20025;-76
2022/07/16 05:04:11;;;;;;;5.43;3.17;;;;;;;25.02;53.18;100537.66;5052503;28;20475;-75
2022/07/16 05:06:36;;;;;;;12.50;3.72;;;;;;;25.10;52.60;100537.41;5052819;28;20112;-76
2022/07/16 05:09:03;;;;;;;9.52;3.58;;;;;;;25.11;52.96;100536.31;5052331;28;20021;-76
2022/07/16 05:11:29;;;;;;;10.23;3.08;;;;;;;25.20;53.36;100549.59;5052288;28;20036;-76
2022/07/16 05:13:55;;;;;;;5.97;2.83;;;;;;;25.23;52.89;100551.91;5052454;28;20459;-76
2022/07/16 05:16:22;;;;;;;10.63;2.78;;;;;;;25.29;51.26;100555.69;5052424;28;20086;-76
2022/07/16 05:18:47;;;;;;;13.55;2.88;;;;;;;25.33;50.64;100552.28;5052692;28;20053;-75
2022/07/16 05:21:13;;;;;;;22.35;4.15;;;;;;;25.50;50.55;100560.03;5052402;28;20060;-76
2022/07/16 05:23:38;;;;;;;8.63;3.47;;;;;;;25.55;50.31;100554.69;5052321;28;20135;-75
2022/07/16 05:26:04;;;;;;;6.72;3.00;;;;;;;25.60;50.00;100550.19;5055129;28;20086;-75
2022/07/16 05:28:29;;;;;;;13.93;3.00;;;;;;;25.72;49.82;100572.31;5057571;28;20028;-76
2022/07/16 05:30:55;;;;;;;6.88;3.05;;;;;;;25.78;50.09;100575.03;5052653;28;20024;-76
2022/07/16 05:33:20;;;;;;;12.93;3.47;;;;;;;25.83;50.15;100577.97;5052103;28;20036;-76
2022/07/16 05:35:46;;;;;;;10.63;2.70;;;;;;;25.93;48.71;100575.53;5051888;28;20044;-76
2022/07/16 05:38:12;;;;;;;7.22;2.30;;;;;;;25.90;48.14;100570.47;5060696;28;20474;-75
2022/07/16 05:40:37;;;;;;;6.15;2.53;;;;;;;25.99;48.71;100566.34;5071196;28;20040;-76
2022/07/16 05:43:04;;;;;;;18.70;3.88;;;;;;;26.08;48.32;100564.19;5066970;28;20149;-76
2022/07/16 05:45:30;;;;;;;14.77;3.40;;;;;;;26.15;48.73;100564.09;5051669;28;20044;-76
2022/07/16 05:47:55;;;;;;;6.38;2.22;;;;;;;26.22;48.21;100562.13;5052294;28;20028;-76
2022/07/16 05:50:21;;;;;;;24.35;2.63;;;;;;;26.35;46.75;100578.56;5051857;28;20051;-76
2022/07/16 05:52:46;;;;;;;7.70;2.83;;;;;;;26.44;46.12;100582.69;5051611;28;20130;-76
2022/07/16 05:55:12;;;;;;;8.70;2.75;;;;;;;26.49;45.98;100580.09;5051629;28;20052;-76
2022/07/16 05:57:37;;;;;;;18.13;4.35;;;;;;;26.50;46.97;100579.88;5052016;28;20041;-76
2022/07/16 06:00:04;;;;;;;15.70;3.97;;;;;;;26.55;47.26;100584.69;5051740;28;20052;-76
2022/07/16 06:02:30;;;;;;;11.70;3.95;;;;;;;26.51;49.06;100589.81;5051637;28;20040;-77
2022/07/16 06:04:55;;;;;;;16.75;4.45;;;;;;;26.56;49.92;100586.38;5050172;28;20478;-75
2022/07/16 06:07:20;;;;;;;11.10;3.60;;;;;;;26.47;49.17;100588.59;5051515;28;20486;-76
2022/07/16 06:09:46;;;;;;;15.18;4.20;;;;;;;26.52;49.82;100594.25;5051574;28;20470;-75
2022/07/16 06:12:11;;;;;;;16.38;5.20;;;;;;;26.52;50.79;100587.91;5051910;28;20029;-75
2022/07/16 06:14:37;;;;;;;26.15;4.68;;;;;;;26.68;51.30;100601.09;5052236;28;20028;-75
2022/07/16 06:17:02;;;;;;;14.10;3.70;;;;;;;26.71;51.84;100597.88;5066429;28;20459;-76
2022/07/16 06:19:28;;;;;;;26.77;5.32;;;;;;;26.78;52.10;100595.88;5040110;28;20481;-75
2022/07/16 06:21:53;;;;;;;15.15;3.22;;;;;;;26.87;50.97;100604.72;5069908;28;20020;-76
2022/07/16 06:24:19;;;;;;;25.77;4.57;;;;;;;26.92;50.84;100600.19;5070048;28;20032;-77
2022/07/16 06:26:47;;;;;;;11.57;3.78;;;;;;;26.89;50.72;100602.56;5055184;28;20033;-76
2022/07/16 06:29:14;;;;;;;15.90;3.53;;;;;;;26.90;50.88;100596.81;5062792;28;20502;-76
2022/07/16 06:31:40;;;;;;;8.20;3.30;;;;;;;26.96;50.58;100598.66;5051326;28;20174;-76
2022/07/16 06:34:06;;;;;;;11.15;2.33;;;;;;;27.06;49.75;100595.34;5049771;28;20521;-75
2022/07/16 06:36:31;;;;;;;15.27;3.10;;;;;;;26.97;50.05;100583.75;5062603;28;20032;-75
2022/07/16 06:38:57;;;;;;;19.30;3.47;;;;;;;27.04;50.43;100595.56;5057862;28;20036;-75
2022/07/16 06:41:22;;;;;;;11.48;3.25;;;;;;;27.14;50.69;100595.00;5071144;28;20048;-76
2022/07/16 06:43:48;;;;;;;7.30;3.28;;;;;;;27.23;50.70;100603.78;5071471;28;20024;-75
2022/07/16 06:46:13;;;;;;;10.65;3.85;;;;;;;27.17;49.06;100604.72;5071328;28;20032;-75
2022/07/16 06:48:39;;;;;;;15.80;3.00;;;;;;;27.13;49.49;100592.47;5054251;28;20032;-74
2022/07/16 06:51:04;;;;;;;6.78;2.70;;;;;;;27.16;49.40;100603.03;5051242;28;20096;-76
2022/07/16 06:53:30;;;;;;;14.27;3.42;;;;;;;27.03;48.39;100599.38;5051118;28;20052;-76
2022/07/16 06:55:55;;;;;;;25.30;6.47;;;;;;;26.99;49.86;100598.19;5051120;28;20114;-75
2022/07/16 06:58:21;;;;;;;13.63;3.50;;;;;;;27.07;49.08;100604.44;5052002;28;20364;-76
2022/07/16 07:00:46;;;;;;;20.65;3.05;;;;;;;26.99;48.67;100598.19;5051281;28;20024;-75
2022/07/16 07:03:11;;;;;;;8.63;2.60;;;;;;;27.08;49.31;100606.97;5054923;28;20025;-75
2022/07/16 07:05:38;;;;;;;10.13;2.92;;;;;;;27.11;47.74;100608.44;5062974;28;20025;-77
2022/07/16 07:08:04;;;;;;;5.22;2.30;;;;;;;27.04;47.87;100609.34;5050963;28;20025;-76
2022/07/16 07:10:30;;;;;;;10.05;2.33;;;;;;;26.88;48.25;100609.16;5051683;28;20021;-76
2022/07/16 07:12:56;;;;;;;3.97;1.70;;;;;;;26.93;48.15;100612.91;5050829;28;20045;-75
2022/07/16 07:15:21;;;;;;;9.90;3.80;;;;;;;26.89;48.23;100621.88;5050993;28;20020;-75
2022/07/16 07:17:47;;;;;;;16.52;2.22;;;;;;;26.93;48.37;100621.19;5060064;28;20031;-75
2022/07/16 07:20:12;;;;;;;16.70;2.38;;;;;;;26.81;48.86;100622.19;5070380;28;20028;-75
2022/07/16 07:22:38;;;;;;;8.75;2.53;;;;;;;26.72;51.80;100624.41;5070490;28;20032;-76
2022/07/16 07:25:04;;;;;;;12.40;3.13;;;;;;;26.79;52.32;100621.53;5070763;28;20058;-75
2022/07/16 07:27:30;;;;;;;8.65;2.70;;;;;;;26.78;51.91;100617.97;5063829;28;20451;-77
2022/07/16 07:29:55;;;;;;;5.35;2.13;;;;;;;26.78;52.68;100629.00;5051030;28;20061;-76
2022/07/16 07:32:21;;;;;;;4.93;2.50;;;;;;;26.79;55.12;100630.66;5063101;28;20013;-76
2022/07/16 07:34:46;;;;;;;10.93;2.42;;;;;;;26.84;56.52;100628.09;5070593;28;20043;-75
2022/07/16 07:37:11;;;;;;;11.30;2.97;;;;;;;26.89;56.91;100639.28;5052200;28;20021;-75
2022/07/16 07:39:37;;;;;;;10.20;2.40;;;;;;;26.90;56.12;100631.84;5050728;28;20033;-76
2022/07/16 07:42:03;;;;;;;7.55;2.53;;;;;;;26.96;56.47;100647.50;5051529;28;20511;-76
2022/07/16 07:44:29;;;;;;;9.00;2.60;;;;;;;27.08;54.91;100636.50;5058227;28;20040;-76
2022/07/16 07:46:54;;;;;;;22.98;3.25;;;;;;;27.10;54.74;100642.63;5050662;28;20025;-75
2022/07/16 07:49:20;;;;;;;3.67;1.70;;;;;;;27.04;56.02;100636.13;5050420;28;20039;-76
2022/07/16 07:51:45;;;;;;;7.95;2.95;;;;;;;27.11;57.95;100641.56;5053777;28;20029;-76
2022/07/16 07:54:11;;;;;;;6.93;2.50;;;;;;;27.08;57.54;100651.16;5070894;28;20481;-76
2022/07/16 07:56:36;;;;;;;13.25;2.15;;;;;;;27.09;57.64;100650.09;5074181;28;20028;-76
2022/07/16 07:59:02;;;;;;;10.40;2.47;;;;;;;27.07;58.54;100637.56;5074184;28;20371;-76
2022/07/16 08:01:27;;;;;;;15.65;2.90;;;;;;;27.24;57.56;100645.00;5066137;28;20036;-75
2022/07/16 08:03:53;;;;;;;6.82;2.47;;;;;;;27.26;57.84;100650.28;5059197;28;20092;-75
2022/07/16 08:06:18;;;;;;;4.50;2.13;;;;;;;27.25;57.36;100645.81;5073430;28;20556;-76
2022/07/16 08:08:44;;;;;;;5.63;2.65;;;;;;;27.12;57.87;100630.31;5064082;28;20024;-76
2022/07/16 08:11:10;;;;;;;13.15;2.53;;;;;;;27.26;58.14;100655.81;5065596;28;20069;-75
2022/07/16 08:13:35;;;;;;;16.40;2.72;;;;;;;27.29;58.57;100658.94;5054463;28;20039;-76
2022/07/16 08:16:01;;;;;;;5.22;2.50;;;;;;;27.35;57.46;100662.69;5061574;28;20044;-77
2022/07/16 08:18:26;;;;;;;17.02;2.83;;;;;;;27.41;56.84;100656.22;5061490;28;20040;-76
2022/07/16 08:20:52;;;;;;;20.98;2.45;;;;;;;27.49;57.00;100664.25;5058266;28;20029;-76
2022/07/16 08:25:44;;;;;;;17.80;2.65;;;;;;;27.47;56.82;100656.19;5073128;28;20116;-75
2022/07/16 08:26:02;;;;;;;9.75;2.40;;;;;;;27.55;56.45;100655.84;5073396;28;20079;-76
2022/07/16 08:28:28;;;;;;;6.35;2.72;;;;;;;27.65;56.64;100663.56;5068631;28;20566;-76
2022/07/16 08:30:53;;;;;;;10.75;2.95;;;;;;;27.68;57.51;100663.09;5056945;28;20455;-76
2022/07/16 08:33:19;;;;;;;4.88;2.40;;;;;;;27.61;58.01;100656.00;5053146;28;20414;-76
2022/07/16 08:35:44;;;;;;;15.38;3.83;;;;;;;27.65;56.67;100662.72;5068971;28;20040;-77
2022/07/16 08:38:10;;;;;;;8.93;2.08;;;;;;;27.68;55.89;100659.47;5065946;28;20029;-79
2022/07/16 08:40:40;;;;;;;14.68;1.92;;;;;;;27.66;55.80;100659.72;5073205;28;20096;-80
2022/07/16 08:43:08;;;;;;;10.88;2.65;;;;;;;27.66;57.78;100656.97;5070824;28;20051;-80
2022/07/16 08:45:36;;;;;;;7.10;3.53;;;;;;;27.62;57.31;100666.78;5060793;28;20047;-78
2022/07/16 08:48:02;;;;;;;10.88;2.30;;;;;;;27.61;58.16;100673.41;5060995;28;20032;-78
2022/07/16 08:50:28;;;;;;;4.50;2.50;;;;;;;27.61;57.98;100672.56;5052596;28;20041;-78
2022/07/16 08:52:57;;;;;;;10.50;2.38;;;;;;;27.65;58.47;100680.13;5064003;28;20487;-78
2022/07/16 08:55:26;;;;;;;14.65;2.67;;;;;;;27.73;58.26;100677.06;5056267;28;20029;-76
2022/07/16 08:57:53;;;;;;;3.75;2.13;;;;;;;27.47;58.51;100671.91;5063389;28;20032;-77
2022/07/16 09:00:20;;;;;;;8.45;2.55;;;;;;;27.50;59.18;100660.38;5063864;28;20047;-77
2022/07/16 09:02:47;;;;;;;12.80;3.78;;;;;;;27.66;58.18;100672.69;5053045;28;20032;-76
2022/07/16 09:05:12;;;;;;;15.45;2.67;;;;;;;27.65;59.07;100669.09;5052799;28;20108;-77
2022/07/16 09:07:38;;;;;;;7.90;2.25;;;;;;;27.72;58.20;100669.84;5051532;28;20117;-76
2022/07/16 09:10:06;;;;;;;6.60;1.90;;;;;;;27.73;58.50;100677.06;5053694;28;20094;-78
2022/07/16 09:12:36;;;;;;;3.65;1.80;;;;;;;27.81;58.62;100667.56;5061959;28;20410;-77
2022/07/16 09:15:24;;;;;;;3.83;2.00;;;;;;;27.90;58.35;100679.97;5072107;28;20032;-78
2022/07/16 09:18:22;;;;;;;8.32;2.13;;;;;;;27.99;58.29;100675.78;5072114;28;20084;-78
2022/07/16 09:20:58;;;;;;;6.05;2.33;;;;;;;27.91;58.45;100682.53;5070739;28;20064;-78
2022/07/16 09:23:32;;;;;;;10.52;2.08;;;;;;;27.88;57.98;100685.75;5072875;28;20115;-79
2022/07/16 09:26:00;;;;;;;5.13;2.33;;;;;;;28.00;57.85;100686.63;5072467;28;20032;-79
2022/07/16 09:28:47;;;;;;;9.38;2.03;;;;;;;28.00;58.60;100683.00;5070961;28;20036;-78
2022/07/16 09:31:33;;;;;;;5.45;2.38;;;;;;;27.87;58.33;100681.31;5072182;28;20048;-77
2022/07/16 09:34:09;;;;;;;8.43;2.60;;;;;;;27.57;59.45;100683.25;5072370;28;20044;-78
2022/07/16 09:36:37;;;;;;;10.07;3.33;;;;;;;27.68;59.48;100687.97;5072105;28;20028;-79
2022/07/16 09:39:08;;;;;;;8.90;2.13;;;;;;;27.83;58.28;100691.13;5072112;28;20029;-80
2022/07/16 09:41:45;;;;;;;8.00;3.10;;;;;;;27.91;58.18;100688.06;5071876;28;20059;-80
2022/07/16 09:44:21;;;;;;;5.60;2.67;;;;;;;27.75;57.98;100691.47;5072169;28;20036;-78
2022/07/16 09:47:07;;;;;;;12.27;2.88;;;;;;;27.86;59.89;100684.28;5072398;28;20039;-79
2022/07/16 09:49:38;;;;;;;9.65;3.25;;;;;;;28.01;59.56;100680.00;5071498;28;20086;-79
2022/07/16 09:52:25;;;;;;;8.05;2.70;;;;;;;27.90;58.44;100683.59;5071951;28;20024;-78
2022/07/16 09:54:55;;;;;;;4.13;2.75;;;;;;;28.04;58.47;100687.84;5071719;28;20029;-80
2022/07/16 09:57:21;;;;;;;6.50;2.55;;;;;;;28.08;57.46;100686.31;5071756;28;20449;-79
2022/07/16 09:59:47;;;;;;;15.52;3.03;;;;;;;28.18;56.99;100674.66;5071798;28;20493;-79
2022/07/16 10:02:13;;;;;;;9.93;2.47;;;;;;;28.20;57.16;100683.53;5071560;28;20032;-78
2022/07/16 10:04:39;;;;;;;8.50;2.40;;;;;;;28.09;53.26;100676.94;5071638;28;20036;-78
2022/07/16 10:07:05;;;;;;;14.98;8.48;;;;;;;28.17;53.95;100677.66;5071702;28;20032;-79
2022/07/16 10:09:32;;;;;;;15.38;4.95;;;;;;;28.23;54.47;100682.22;5071908;28;20100;-78
2022/07/16 10:12:06;;;;;;;7.63;2.05;;;;;;;28.30;56.15;100674.66;5071662;28;20419;-79
2022/07/16 10:14:35;;;;;;;5.82;2.08;;;;;;;28.37;54.79;100673.47;5071300;28;20058;-79
2022/07/16 10:17:21;;;;;;;14.85;2.72;;;;;;;28.57;54.36;100684.16;5071876;28;20033;-78
2022/07/16 10:20:08;;;;;;;4.32;1.73;;;;;;;28.59;54.87;100677.31;5087025;28;20032;-78
2022/07/16 10:22:37;;;;;;;8.25;1.83;;;;;;;28.69;53.90;100685.03;5077274;28;20458;-80
2022/07/16 10:25:30;;;;;;;8.50;1.73;;;;;;;28.66;51.99;100677.22;5071538;28;20036;-79
2022/07/16 10:27:56;;;;;;;10.80;2.15;;;;;;;28.76;53.50;100683.00;5071231;28;20139;-79
2022/07/16 10:30:21;;;;;;;7.35;2.17;;;;;;;28.75;54.47;100697.06;5071158;28;20111;-78
2022/07/16 10:32:59;;;;;;;5.75;2.35;;;;;;;28.69;52.41;100687.81;5071259;28;20025;-79
2022/07/16 10:35:47;;;;;;;20.35;2.13;;;;;;;28.89;53.32;100679.97;5071149;28;20099;-78
2022/07/16 10:38:16;;;;;;;12.77;3.15;;;;;;;29.12;53.43;100685.44;5071336;28;20029;-78
2022/07/16 10:40:43;;;;;;;15.43;2.28;;;;;;;29.26;53.53;100676.91;5070810;28;20116;-80
2022/07/16 10:43:17;;;;;;;23.38;2.58;;;;;;;29.42;52.75;100676.09;5071148;28;20110;-78
2022/07/16 10:45:57;;;;;;;3.90;1.73;;;;;;;29.38;52.85;100661.91;5071084;28;20028;-78
2022/07/16 10:48:47;;;;;;;14.95;3.10;;;;;;;29.32;52.53;100670.38;5070824;28;20048;-79
2022/07/16 10:51:18;;;;;;;3.08;1.60;;;;;;;29.45;52.46;100675.59;5070992;28;20382;-79
2022/07/16 10:54:18;;;;;;;8.80;1.70;;;;;;;29.37;52.72;100657.44;5071056;28;20055;-79
2022/07/16 10:56:48;;;;;;;4.43;1.85;;;;;;;29.45;52.47;100672.81;5070995;28;20103;-77
2022/07/16 10:59:16;;;;;;;7.88;1.65;;;;;;;29.52;52.70;100668.00;5071179;28;20024;-79
2022/07/16 11:01:46;;;;;;;7.50;1.65;;;;;;;29.59;52.28;100666.75;5070902;28;20025;-78
2022/07/16 11:04:12;;;;;;;7.32;1.67;;;;;;;29.53;52.08;100661.38;5071096;28;20043;-78
2022/07/16 11:06:39;;;;;;;8.40;2.53;;;;;;;29.31;53.24;100669.53;5071368;28;20028;-78
2022/07/16 11:09:06;;;;;;;6.93;2.13;;;;;;;29.42;51.79;100671.41;5071228;28;20033;-79
2022/07/16 11:11:34;;;;;;;11.30;2.25;;;;;;;29.40;51.79;100669.97;5070877;28;20028;-79
2022/07/16 11:14:00;;;;;;;10.40;2.28;;;;;;;29.24;51.66;100673.50;5070663;28;20112;-79
2022/07/16 11:16:26;;;;;;;14.18;2.47;;;;;;;29.11;51.36;100642.19;5071140;28;20103;-79
2022/07/16 11:18:52;;;;;;;13.98;2.25;;;;;;;29.13;51.42;100673.28;5069494;28;20120;-78
2022/07/16 11:21:17;;;;;;;5.75;1.95;;;;;;;29.15;51.86;100661.94;5071068;28;20032;-78
2022/07/16 11:24:00;;;;;;;7.90;1.88;;;;;;;29.32;52.13;100674.00;5069680;28;20040;-79
2022/07/16 11:26:28;;;;;;;7.35;3.00;;;;;;;29.29;51.54;100666.16;5073778;28;20450;-78
2022/07/16 11:28:58;;;;;;;6.97;2.00;;;;;;;29.45;51.66;100665.38;5074775;28;20040;-79